»·PEaware :: N232WP KSJC-KMFR

N232WP :: KSJC-KMFR

FLIGHT INFORMATION

Flight Status: Arrived
Operator: Privately registered:
United States
More flights under this callsign
Pilot: Walter P. (10403)
Aircraft: BOEING 737-200
(B732)
More flights by this aircraft type
Origin: KSJC Mineta San Jose Intl
United States
Destination: KMFR Rogue Valley Intl-Medford
United States
More flights between these airports :: More routes between these airports
Route: +SUNOL9 SAC J126 OED
File this flight plan on PilotEdge
Remarks:
Altitude:
(Current/Filed)
30,000ft
Speed:
(Current/Filed)
440kts
Departed: 10-Oct-18 01:49 PM
Arrived: 10-Oct-18 02:54 PM
Distance/Time
Traveled:
304nm/1:04
Distance/Time
To Go:
Arrived

Flight Plot

Page will automatically refresh every two minutes.

Flight plan parsing failed; only flown route is shown


Map Options




Map Legend


Flown Route
Filed Route
Departure Airport
Arrival Airport
Navaid (VOR, NDB)
Fix

Horizontal Profiles

Position Reports

Time Latitude Longitude Heading Altitude Ground
Speed
10-Oct-18 13:30 37.370374 -121.931500 60 52ft 0kts
10-Oct-18 13:31 37.370374 -121.931500 60 52ft 0kts
10-Oct-18 13:32 37.370374 -121.931500 60 52ft 0kts
10-Oct-18 13:33 37.370374 -121.931500 60 52ft 0kts
10-Oct-18 13:34 37.370374 -121.931500 60 52ft 0kts
10-Oct-18 13:35 37.370374 -121.931500 60 52ft 0kts
10-Oct-18 13:36 37.370374 -121.931500 60 52ft 0kts
10-Oct-18 13:37 37.370374 -121.931500 60 52ft 0kts
10-Oct-18 13:38 37.370374 -121.931500 60 52ft 0kts
10-Oct-18 13:39 37.370374 -121.931500 60 52ft 0kts
10-Oct-18 13:40 37.370374 -121.931500 60 52ft 0kts
10-Oct-18 13:41 37.370372 -121.931506 60 52ft 1kts
10-Oct-18 13:42 37.370387 -121.932114 139 52ft 0kts
10-Oct-18 13:43 37.370388 -121.932115 139 52ft 0kts
10-Oct-18 13:44 37.370388 -121.932115 139 52ft 0kts
10-Oct-18 13:45 37.370388 -121.932115 139 52ft 0kts
10-Oct-18 13:46 37.370388 -121.932115 139 52ft 0kts
10-Oct-18 13:47 37.368530 -121.930456 138 52ft 25kts
10-Oct-18 13:48 37.361992 -121.923249 137 52ft 30kts
10-Oct-18 13:49 37.355854 -121.916540 139 52ft 27kts
10-Oct-18 13:50 37.352819 -121.915886 312 52ft 13kts
10-Oct-18 13:51 37.370104 -121.934705 319 426ft 171kts
10-Oct-18 13:52 37.410590 -121.968603 10 2934ft 193kts
10-Oct-18 13:53 37.446707 -121.911139 48 3204ft 222kts
10-Oct-18 13:54 37.490718 -121.856060 11 5504ft 245kts
10-Oct-18 13:55 37.560034 -121.850541 1 8329ft 269kts
10-Oct-18 13:56 37.629009 -121.815573 35 11158ft 284kts
10-Oct-18 13:57 37.706826 -121.784338 13 13389ft 308kts
10-Oct-18 13:58 37.790905 -121.757879 13 15389ft 329kts
10-Oct-18 13:59 37.881466 -121.729463 13 17131ft 348kts
10-Oct-18 14:00 37.978903 -121.698832 13 18495ft 372kts
10-Oct-18 14:01 38.079937 -121.667035 13 20108ft 380kts
10-Oct-18 14:02 38.182045 -121.635223 13 21498ft 388kts
10-Oct-18 14:03 38.287722 -121.601767 12 22761ft 396kts
10-Oct-18 14:04 38.395887 -121.574669 356 23877ft 400kts
10-Oct-18 14:05 38.500188 -121.612564 340 25339ft 389kts
10-Oct-18 14:06 38.603729 -121.652858 341 26590ft 386kts
10-Oct-18 14:07 38.706069 -121.692003 341 27710ft 383kts
10-Oct-18 14:08 38.807501 -121.730983 341 28702ft 383kts
10-Oct-18 14:09 38.909171 -121.770071 341 29649ft 381kts
10-Oct-18 14:10 39.012345 -121.809974 341 29840ft 398kts
10-Oct-18 14:11 39.120227 -121.851572 342 29836ft 416kts
10-Oct-18 14:12 39.250731 -121.901784 341 29832ft 430kts
10-Oct-18 14:13 39.347180 -121.939350 341 29834ft 438kts
10-Oct-18 14:14 39.463378 -121.984799 341 29831ft 439kts
10-Oct-18 14:15 39.579904 -122.030529 341 29806ft 439kts
10-Oct-18 14:16 39.695718 -122.076122 341 29805ft 438kts
10-Oct-18 14:17 39.812430 -122.122229 341 29805ft 438kts
10-Oct-18 14:18 39.928655 -122.168308 341 29805ft 438kts
10-Oct-18 14:19 40.044620 -122.214450 341 29805ft 438kts
10-Oct-18 14:20 40.159734 -122.260498 341 29804ft 436kts
10-Oct-18 14:21 40.260864 -122.301094 341 29804ft 435kts
10-Oct-18 14:22 40.370779 -122.362963 340 29806ft 432kts
10-Oct-18 14:23 40.506150 -122.407002 347 29804ft 432kts
10-Oct-18 14:24 40.603841 -122.432322 347 29804ft 431kts
10-Oct-18 14:25 40.721417 -122.461772 348 29803ft 430kts
10-Oct-18 14:26 40.838448 -122.490942 348 29659ft 427kts
10-Oct-18 14:27 40.954326 -122.519891 348 28546ft 423kts
10-Oct-18 14:28 41.069290 -122.548750 348 27599ft 417kts
10-Oct-18 14:29 41.177051 -122.575651 348 25564ft 402kts
10-Oct-18 14:30 41.283284 -122.602456 348 23301ft 386kts
10-Oct-18 14:31 41.386322 -122.628749 348 21134ft 370kts
10-Oct-18 14:32 41.484645 -122.653955 346 18859ft 360kts
10-Oct-18 14:33 41.581304 -122.679777 346 16476ft 357kts
10-Oct-18 14:34 41.679680 -122.705298 349 13918ft 361kts
10-Oct-18 14:35 41.774780 -122.729657 351 12176ft 334kts
10-Oct-18 14:36 41.862642 -122.750047 357 10185ft 297kts
10-Oct-18 14:37 41.939326 -122.773276 344 9275ft 262kts
10-Oct-18 14:38 42.004895 -122.792807 345 9316ft 248kts
10-Oct-18 14:39 42.075868 -122.816274 344 9293ft 270kts
10-Oct-18 14:40 42.143380 -122.842525 335 9276ft 248kts
10-Oct-18 14:41 42.207455 -122.877680 335 9298ft 265kts
10-Oct-18 14:42 42.276429 -122.915816 335 9287ft 270kts
10-Oct-18 14:43 42.344394 -122.953688 335 8381ft 263kts
10-Oct-18 14:44 42.409219 -122.990315 335 7990ft 247kts
10-Oct-18 14:45 42.475022 -123.027499 335 7979ft 260kts
10-Oct-18 14:46 42.538781 -123.063379 334 7979ft 241kts
10-Oct-18 14:47 42.611396 -123.104156 334 7996ft 248kts
10-Oct-18 14:48 42.664776 -123.104157 45 7515ft 253kts
10-Oct-18 14:49 42.657418 -123.028296 141 7117ft 216kts
10-Oct-18 14:50 42.605030 -122.994502 158 6020ft 205kts
10-Oct-18 14:51 42.553029 -122.966905 159 4907ft 198kts
10-Oct-18 14:52 42.502450 -122.940241 158 3814ft 193kts
10-Oct-18 14:53 42.453018 -122.914251 158 2770ft 183kts
10-Oct-18 14:54 42.410899 -122.892127 159 1880ft 154kts
10-Oct-18 14:55 42.374445 -122.872967 160 1316ft 94kts
10-Oct-18 14:56 42.363643 -122.868657 294 1330ft 12kts
10-Oct-18 14:57 42.367510 -122.870986 339 1323ft 18kts
10-Oct-18 14:58 42.369025 -122.873353 249 1320ft 4kts
10-Oct-18 14:59 42.368992 -122.873459 246 1320ft 0kts

Navigation Log

Ident Type
Flight plan parsing failed, navigation log unavailable